Time;durP1;ratioP1;P1;durP2;ratioP2;P2;SDS_P1;SDS_P2;PMS_P1;PMS_P2;Temp;Humidity;BMP_temperature;BMP_pressure;BME280_temperature;BME280_humidity;BME280_pressure;Samples;Min_cycle;Max_cycle;Signal;HPM_P1;HPM_P2
2022/11/22 00:01:23;;;;;;;21.13;17.20;;;6.10;99.90;;;;;;6168524;28;20481;-66
2022/11/22 00:04:28;;;;;;;19.10;16.33;;;6.20;99.90;;;;;;6187934;28;20477;-65
2022/11/22 00:07:31;;;;;;;21.03;16.40;;;6.20;99.90;;;;;;6188713;28;20482;-66
2022/11/22 00:10:34;;;;;;;19.53;16.70;;;6.20;99.90;;;;;;6188196;28;20556;-66
2022/11/22 00:13:37;;;;;;;24.40;17.87;;;6.20;99.90;;;;;;6187538;28;21026;-64
2022/11/22 00:16:41;;;;;;;23.53;18.17;;;6.20;99.90;;;;;;6186044;28;20490;-65
2022/11/22 00:19:45;;;;;;;23.20;17.83;;;6.10;99.90;;;;;;6188201;28;20821;-65
2022/11/22 00:22:48;;;;;;;22.10;16.80;;;6.10;99.90;;;;;;6201152;28;20484;-64
2022/11/22 00:25:51;;;;;;;23.67;17.33;;;6.00;99.90;;;;;;6207716;28;20489;-63
2022/11/22 00:28:54;;;;;;;22.10;19.17;;;5.90;99.90;;;;;;6202333;28;20492;-64
2022/11/22 00:31:57;;;;;;;22.20;17.53;;;6.00;99.90;;;;;;6201987;28;20925;-62
2022/11/22 00:35:02;;;;;;;23.37;18.80;;;6.00;99.90;;;;;;6202610;28;20488;-64
2022/11/22 00:38:05;;;;;;;23.73;17.30;;;6.00;99.90;;;;;;6204754;28;20477;-64
2022/11/22 00:41:09;;;;;;;31.00;24.60;;;6.10;99.90;;;;;;6205775;28;20822;-64
2022/11/22 00:44:12;;;;;;;27.97;19.93;;;6.10;99.90;;;;;;6205551;28;20492;-64
2022/11/22 00:47:15;;;;;;;25.13;20.53;;;6.10;99.90;;;;;;6203913;28;20996;-65
2022/11/22 00:50:19;;;;;;;26.47;19.30;;;6.10;99.90;;;;;;6203783;28;20484;-63
2022/11/22 00:53:23;;;;;;;28.10;19.40;;;6.10;99.90;;;;;;6201967;28;20474;-64
2022/11/22 00:56:26;;;;;;;29.10;22.03;;;6.20;99.90;;;;;;6204500;28;20489;-62
2022/11/22 00:59:29;;;;;;;32.50;24.30;;;6.10;99.90;;;;;;6203222;28;20492;-63
2022/11/22 01:02:33;;;;;;;31.83;26.50;;;6.10;99.90;;;;;;6188989;28;20567;-63
2022/11/22 01:05:37;;;;;;;28.60;19.73;;;6.20;99.90;;;;;;6174251;28;20500;-64
2022/11/22 01:08:40;;;;;;;22.77;18.90;;;6.20;99.90;;;;;;6178422;28;20528;-64
2022/11/22 01:11:44;;;;;;;35.30;23.37;;;6.10;99.90;;;;;;6179599;28;20477;-64
2022/11/22 01:14:47;;;;;;;29.20;21.20;;;6.10;99.90;;;;;;6179001;28;20474;-64
2022/11/22 01:17:50;;;;;;;31.70;20.70;;;6.10;99.90;;;;;;6185029;28;20501;-66
2022/11/22 01:20:55;;;;;;;35.97;26.30;;;6.10;99.90;;;;;;6188020;28;20488;-65
2022/11/22 01:23:58;;;;;;;26.27;23.00;;;6.10;99.90;;;;;;6196391;28;20469;-64
2022/11/22 01:27:01;;;;;;;24.97;18.20;;;6.10;99.90;;;;;;6188616;28;20446;-66
2022/11/22 01:30:06;;;;;;;29.67;21.50;;;6.10;99.90;;;;;;6185758;28;20800;-64
2022/11/22 01:33:10;;;;;;;51.57;35.37;;;6.10;99.90;;;;;;6186104;28;20449;-66
2022/11/22 01:36:14;;;;;;;59.63;39.17;;;6.10;99.90;;;;;;6185951;28;20485;-65
2022/11/22 01:39:17;;;;;;;54.37;36.93;;;6.10;99.90;;;;;;6187740;28;20469;-65
2022/11/22 01:42:20;;;;;;;43.30;27.27;;;6.10;99.90;;;;;;6201659;28;20472;-65
2022/11/22 01:45:45;;;;;;;39.93;29.60;;;6.10;99.90;;;;;;6200846;28;20484;-66
2022/11/22 01:48:54;;;;;;;31.80;21.20;;;6.00;99.90;;;;;;6200759;28;20469;-66
2022/11/22 01:52:02;;;;;;;35.20;24.87;;;5.90;99.90;;;;;;6201233;28;21022;-66
2022/11/22 01:55:11;;;;;;;29.67;21.63;;;5.80;99.90;;;;;;6197357;28;20485;-64
2022/11/22 01:58:15;;;;;;;34.40;23.10;;;5.80;99.90;;;;;;6181619;28;20473;-65
2022/11/22 02:01:19;;;;;;;50.53;33.90;;;5.80;99.90;;;;;;6188414;28;20480;-65
2022/11/22 02:04:26;;;;;;;38.40;26.10;;;5.80;99.90;;;;;;6183028;28;20505;-64
2022/11/22 02:07:35;;;;;;;33.53;24.70;;;5.60;99.90;;;;;;6188902;28;20577;-65
2022/11/22 02:10:43;;;;;;;30.03;21.97;;;5.50;99.90;;;;;;6175988;28;20569;-65
2022/11/22 02:13:48;;;;;;;33.47;24.20;;;5.60;99.90;;;;;;6191704;28;20481;-64
2022/11/22 02:16:51;;;;;;;32.43;25.40;;;5.50;99.90;;;;;;6200775;28;20487;-65
2022/11/22 02:19:55;;;;;;;25.97;19.33;;;5.40;99.90;;;;;;6200733;28;20484;-65
2022/11/22 02:23:10;;;;;;;22.80;19.37;;;5.40;99.90;;;;;;6200392;28;20477;-66
2022/11/22 02:26:15;;;;;;;23.57;17.90;;;5.30;99.90;;;;;;6200553;28;20485;-63
2022/11/22 02:29:19;;;;;;;32.57;23.43;;;5.30;99.90;;;;;;6200363;28;20476;-65
2022/11/22 02:32:22;;;;;;;27.27;20.27;;;5.30;99.90;;;;;;6200310;28;20489;-65
2022/11/22 02:35:27;;;;;;;40.87;28.47;;;5.20;99.90;;;;;;6200725;28;20533;-65
2022/11/22 02:38:34;;;;;;;31.10;22.80;;;5.30;99.90;;;;;;6200527;28;20488;-65
2022/11/22 02:41:40;;;;;;;33.43;23.07;;;5.50;99.90;;;;;;6200372;28;20977;-66
2022/11/22 02:44:43;;;;;;;24.30;18.47;;;5.50;99.90;;;;;;6200239;28;20477;-64
2022/11/22 02:47:46;;;;;;;26.70;19.77;;;5.50;99.90;;;;;;6198972;28;20481;-65
2022/11/22 02:50:49;;;;;;;32.80;22.83;;;5.60;99.90;;;;;;6198745;28;20492;-65
2022/11/22 02:53:53;;;;;;;21.83;16.90;;;5.70;99.90;;;;;;6183820;28;20493;-64
2022/11/22 02:56:58;;;;;;;20.53;16.50;;;5.70;99.90;;;;;;6176522;28;20766;-64
2022/11/22 03:00:01;;;;;;;26.17;20.53;;;5.70;99.90;;;;;;6176896;28;20468;-65
2022/11/22 03:03:05;;;;;;;27.03;21.73;;;5.80;99.90;;;;;;6181092;28;20450;-65
2022/11/22 03:06:08;;;;;;;27.00;18.73;;;5.90;99.90;;;;;;6179964;28;20485;-64
2022/11/22 03:09:11;;;;;;;19.67;15.73;;;5.80;99.90;;;;;;6193982;28;20446;-65
2022/11/22 03:12:15;;;;;;;24.30;17.00;;;5.90;99.90;;;;;;6188096;28;20491;-65
2022/11/22 03:15:18;;;;;;;17.40;14.33;;;5.90;99.90;;;;;;6187052;28;20473;-64
2022/11/22 03:18:22;;;;;;;19.50;15.53;;;5.90;99.90;;;;;;6192230;28;20971;-64
2022/11/22 03:21:25;;;;;;;21.67;16.67;;;5.90;99.90;;;;;;6184714;28;20537;-66
2022/11/22 03:24:28;;;;;;;19.13;16.00;;;5.90;99.90;;;;;;6192792;28;20479;-64
2022/11/22 03:27:32;;;;;;;17.47;14.63;;;5.90;99.90;;;;;;6193352;28;20464;-64
2022/11/22 03:30:40;;;;;;;21.67;15.90;;;5.90;99.90;;;;;;6190366;28;20800;-65
2022/11/22 03:33:43;;;;;;;19.77;16.23;;;5.90;99.90;;;;;;6187619;28;20472;-64
2022/11/22 03:36:46;;;;;;;25.47;16.63;;;5.90;99.90;;;;;;6190104;28;20523;-64
2022/11/22 03:39:49;;;;;;;21.50;17.00;;;5.90;99.90;;;;;;6187039;28;20473;-66
2022/11/22 03:42:54;;;;;;;26.70;18.20;;;6.00;99.90;;;;;;6189087;28;20858;-65
2022/11/22 03:45:57;;;;;;;23.93;16.13;;;6.10;99.90;;;;;;6184700;28;20488;-64
2022/11/22 03:49:00;;;;;;;25.77;17.93;;;6.10;99.90;;;;;;6180042;28;20477;-64
2022/11/22 03:52:03;;;;;;;25.50;18.73;;;6.20;99.90;;;;;;6180264;28;20473;-64
2022/11/22 03:55:07;;;;;;;23.37;17.87;;;6.20;99.90;;;;;;6184839;28;20478;-66
2022/11/22 03:58:11;;;;;;;25.40;17.63;;;6.10;99.90;;;;;;6186123;28;20478;-65
2022/11/22 04:01:14;;;;;;;19.40;16.07;;;6.20;99.90;;;;;;6189261;28;20968;-65
2022/11/22 04:04:19;;;;;;;20.83;15.23;;;6.10;99.90;;;;;;6182690;28;20493;-65
2022/11/22 04:07:22;;;;;;;22.03;15.07;;;6.10;99.90;;;;;;6180040;28;20473;-65
2022/11/22 04:10:26;;;;;;;21.30;16.23;;;6.20;99.90;;;;;;6179535;28;20804;-65
2022/11/22 04:16:47;;;;;;;22.60;15.13;;;6.10;99.90;;;;;;6180090;28;20474;-66
2022/11/22 04:21:32;;;;;;;23.60;15.77;;;6.10;99.90;;;;;;6191211;28;20472;-65
2022/11/22 04:23:25;;;;;;;27.30;16.70;;;6.10;99.90;;;;;;6191128;28;20981;-66
2022/11/22 04:26:34;;;;;;;27.63;17.83;;;6.20;99.90;;;;;;6184313;28;20481;-65
2022/11/22 04:29:39;;;;;;;24.97;17.77;;;6.20;99.90;;;;;;6179207;28;20481;-65
2022/11/22 04:32:47;;;;;;;25.17;19.93;;;6.10;99.90;;;;;;6179321;28;20482;-65
2022/11/22 04:35:51;;;;;;;26.10;18.87;;;6.10;99.90;;;;;;6179306;28;20486;-66
2022/11/22 04:38:54;;;;;;;23.67;17.93;;;6.10;99.90;;;;;;6179242;28;20973;-66
2022/11/22 04:45:15;;;;;;;23.50;18.10;;;6.10;99.90;;;;;;6178960;28;20478;-65
2022/11/22 04:48:19;;;;;;;27.03;19.77;;;6.10;99.90;;;;;;6178800;28;20910;-66
2022/11/22 04:54:43;;;;;;;22.00;17.53;;;6.10;99.90;;;;;;6178574;28;20968;-65
2022/11/22 04:57:46;;;;;;;27.73;18.00;;;6.20;99.90;;;;;;6178809;28;20524;-65
2022/11/22 05:00:51;;;;;;;25.27;17.63;;;6.20;99.90;;;;;;6178807;28;20469;-65
2022/11/22 05:03:54;;;;;;;22.50;17.83;;;6.30;99.90;;;;;;6196789;28;20484;-65
2022/11/22 05:06:57;;;;;;;21.10;15.37;;;6.30;99.90;;;;;;6202773;28;20477;-65
2022/11/22 05:10:00;;;;;;;21.43;16.77;;;6.30;99.90;;;;;;6202554;28;20562;-65
2022/11/22 05:13:04;;;;;;;26.13;14.97;;;6.40;99.90;;;;;;6202626;28;20697;-65
2022/11/22 05:16:11;;;;;;;25.13;16.10;;;6.40;99.90;;;;;;6202556;28;20493;-65
2022/11/22 05:19:14;;;;;;;30.53;15.07;;;6.40;99.90;;;;;;6202385;28;20472;-66
2022/11/22 05:23:52;;;;;;;26.90;16.13;;;6.40;99.90;;;;;;6202274;28;20468;-65
2022/11/22 05:25:40;;;;;;;25.47;14.37;;;6.40;99.90;;;;;;6202325;28;20478;-65
2022/11/22 05:28:43;;;;;;;25.87;17.40;;;6.50;99.90;;;;;;6202581;28;20961;-65
2022/11/22 05:31:48;;;;;;;25.83;16.27;;;6.50;99.90;;;;;;6202205;28;20481;-65
2022/11/22 05:34:53;;;;;;;25.67;14.70;;;6.50;99.90;;;;;;6202233;28;20504;-64
2022/11/22 05:37:56;;;;;;;25.00;14.90;;;6.50;99.90;;;;;;6201845;28;20473;-66
2022/11/22 05:41:00;;;;;;;21.20;16.47;;;6.50;99.90;;;;;;6201001;28;20476;-65
2022/11/22 05:44:03;;;;;;;28.30;16.67;;;6.50;99.90;;;;;;6201217;28;20934;-65
2022/11/22 05:47:08;;;;;;;25.40;13.97;;;6.50;99.90;;;;;;6200889;28;20473;-66
2022/11/22 05:50:11;;;;;;;27.60;15.77;;;6.50;99.90;;;;;;6200724;28;20480;-65
2022/11/22 05:53:14;;;;;;;22.87;15.10;;;6.40;99.90;;;;;;6200794;28;20485;-65
2022/11/22 05:56:19;;;;;;;20.80;14.00;;;6.40;99.90;;;;;;6201708;28;20795;-64
2022/11/22 05:59:23;;;;;;;23.53;15.00;;;6.40;99.90;;;;;;6203387;28;20477;-65
2022/11/22 06:02:27;;;;;;;20.87;14.10;;;6.40;99.90;;;;;;6194219;28;20478;-66
2022/11/22 06:05:31;;;;;;;21.00;14.70;;;6.40;99.90;;;;;;6178174;28;20836;-67
2022/11/22 06:08:36;;;;;;;28.83;18.03;;;6.40;99.90;;;;;;6178263;28;20493;-67
2022/11/22 06:11:39;;;;;;;26.30;18.80;;;6.40;99.90;;;;;;6177107;28;20482;-66
2022/11/22 06:14:42;;;;;;;28.90;19.20;;;6.30;99.90;;;;;;6176888;28;20486;-66
2022/11/22 06:17:47;;;;;;;28.27;19.33;;;6.30;99.90;;;;;;6177131;28;20789;-66
2022/11/22 06:20:50;;;;;;;33.10;20.40;;;6.30;99.90;;;;;;6177152;28;20497;-66
2022/11/22 06:23:54;;;;;;;28.93;18.80;;;6.20;99.90;;;;;;6190735;28;20473;-65
2022/11/22 06:26:57;;;;;;;31.73;19.97;;;6.20;99.90;;;;;;6200809;28;20543;-65
2022/11/22 06:30:01;;;;;;;30.97;21.27;;;6.20;99.90;;;;;;6200621;28;20921;-66
2022/11/22 06:33:05;;;;;;;26.97;20.17;;;6.20;99.90;;;;;;6201230;28;20503;-66
2022/11/22 06:36:10;;;;;;;28.73;22.00;;;6.10;99.90;;;;;;6205506;28;20457;-66
2022/11/22 06:39:13;;;;;;;28.43;19.80;;;6.00;99.90;;;;;;6205787;28;20457;-66
2022/11/22 06:42:17;;;;;;;28.27;19.47;;;6.00;99.90;;;;;;6206103;28;20452;-66
2022/11/22 06:45:20;;;;;;;28.53;20.87;;;6.00;99.90;;;;;;6205425;28;20473;-67
2022/11/22 06:48:24;;;;;;;30.00;20.47;;;6.10;99.90;;;;;;6208030;28;20464;-66
2022/11/22 06:51:30;;;;;;;35.37;21.40;;;6.10;99.90;;;;;;6208357;28;20464;-66
2022/11/22 06:54:33;;;;;;;26.50;20.23;;;6.10;99.90;;;;;;6209336;28;20484;-66
2022/11/22 06:57:36;;;;;;;27.80;19.90;;;6.30;99.90;;;;;;6208245;28;20464;-66
2022/11/22 07:00:39;;;;;;;27.57;20.33;;;6.40;99.90;;;;;;6207289;28;20480;-65
2022/11/22 07:03:44;;;;;;;25.90;19.33;;;6.50;99.90;;;;;;6190011;28;20466;-64
2022/11/22 07:06:47;;;;;;;30.07;19.80;;;6.60;99.90;;;;;;6183725;28;20474;-66
2022/11/22 07:09:51;;;;;;;23.13;17.83;;;6.60;99.90;;;;;;6183586;28;20461;-66
2022/11/22 07:12:58;;;;;;;23.97;17.63;;;6.70;99.90;;;;;;6185408;28;20524;-66
2022/11/22 07:16:03;;;;;;;25.10;18.57;;;6.70;99.90;;;;;;6181184;28;20478;-65
2022/11/22 07:19:08;;;;;;;27.27;17.23;;;6.60;99.90;;;;;;6181199;28;20984;-65
2022/11/22 07:22:11;;;;;;;22.73;17.43;;;6.60;99.90;;;;;;6182395;28;20801;-65
2022/11/22 07:25:14;;;;;;;29.30;18.53;;;6.60;99.90;;;;;;6205052;28;20484;-65
2022/11/22 07:28:18;;;;;;;26.20;17.90;;;6.60;99.90;;;;;;6200656;28;20480;-65
2022/11/22 07:31:21;;;;;;;35.93;20.80;;;6.60;99.90;;;;;;6194383;28;20482;-65
2022/11/22 07:34:25;;;;;;;26.30;20.57;;;6.60;99.90;;;;;;6180505;28;20486;-65
2022/11/22 07:37:31;;;;;;;31.57;20.23;;;6.40;99.90;;;;;;6180550;28;20469;-65
2022/11/22 07:40:34;;;;;;;31.63;20.60;;;6.40;99.90;;;;;;6180381;28;20485;-65
2022/11/22 07:43:38;;;;;;;31.03;23.13;;;6.40;99.90;;;;;;6180694;28;20518;-65
2022/11/22 07:46:41;;;;;;;26.37;19.77;;;6.50;99.90;;;;;;6195014;28;20480;-66
2022/11/22 07:49:46;;;;;;;30.43;21.70;;;6.50;99.90;;;;;;6197388;28;20485;-66
2022/11/22 07:52:55;;;;;;;31.90;22.20;;;6.40;99.90;;;;;;6184984;28;20473;-66
2022/11/22 07:56:01;;;;;;;35.27;22.27;;;6.40;99.90;;;;;;6192227;28;20498;-66
2022/11/22 07:59:04;;;;;;;33.30;22.07;;;6.50;99.90;;;;;;6194285;28;20563;-64
2022/11/22 08:02:11;;;;;;;32.03;20.10;;;6.60;99.90;;;;;;6197619;28;20466;-65
2022/11/22 08:05:16;;;;;;;34.80;21.83;;;6.60;99.90;;;;;;6179939;28;20474;-65
2022/11/22 08:08:19;;;;;;;30.87;21.67;;;6.80;99.90;;;;;;6180241;28;20478;-65
2022/11/22 08:11:22;;;;;;;33.67;24.77;;;6.80;99.90;;;;;;6179887;28;20469;-65
2022/11/22 08:14:26;;;;;;;37.03;22.70;;;6.80;99.90;;;;;;6184651;28;20481;-65
2022/11/22 08:17:29;;;;;;;29.97;21.83;;;6.80;99.90;;;;;;6194315;28;20481;-65
2022/11/22 08:20:33;;;;;;;28.03;19.90;;;6.90;99.90;;;;;;6172184;28;20946;-65
2022/11/22 08:23:37;;;;;;;32.90;23.33;;;6.90;99.90;;;;;;6179925;28;20473;-64
2022/11/22 08:26:41;;;;;;;29.47;20.60;;;6.90;99.90;;;;;;6179277;28;20478;-65
2022/11/22 08:29:44;;;;;;;37.60;22.97;;;6.80;99.90;;;;;;6179528;28;20544;-66
2022/11/22 08:32:47;;;;;;;29.67;20.77;;;6.70;99.90;;;;;;6179724;28;20807;-65
2022/11/22 08:35:51;;;;;;;30.77;21.70;;;6.80;99.90;;;;;;6183660;28;20486;-66
2022/11/22 08:38:55;;;;;;;34.97;23.20;;;6.90;99.90;;;;;;6189381;28;20498;-65
2022/11/22 08:41:58;;;;;;;30.07;22.10;;;6.90;99.90;;;;;;6203595;28;20531;-65
2022/11/22 08:45:01;;;;;;;32.23;22.77;;;7.00;99.90;;;;;;6184762;28;20494;-65
2022/11/22 08:48:05;;;;;;;30.90;21.77;;;7.00;99.90;;;;;;6177295;28;20455;-65
2022/11/22 08:51:11;;;;;;;37.37;27.50;;;7.10;99.90;;;;;;6189430;28;20462;-65
2022/11/22 08:54:15;;;;;;;29.63;22.93;;;7.30;99.90;;;;;;6183011;28;20496;-65
2022/11/22 08:57:18;;;;;;;32.27;21.73;;;7.30;99.90;;;;;;6177949;28;20454;-65
2022/11/22 09:00:21;;;;;;;36.67;22.17;;;7.40;99.90;;;;;;6177537;28;20492;-65
2022/11/22 09:03:25;;;;;;;27.47;20.00;;;7.50;99.90;;;;;;6183978;28;20521;-64
2022/11/22 09:06:31;;;;;;;27.50;19.50;;;7.50;99.90;;;;;;6204449;28;20960;-65
2022/11/22 09:09:54;;;;;;;29.00;21.00;;;7.50;99.90;;;;;;6201757;28;20505;-64
2022/11/22 09:12:57;;;;;;;27.53;20.83;;;7.50;99.90;;;;;;6195837;28;20822;-65
2022/11/22 09:16:04;;;;;;;29.80;18.80;;;7.50;99.90;;;;;;6186329;28;20481;-64
2022/11/22 09:19:07;;;;;;;31.23;20.47;;;7.50;99.90;;;;;;6200835;28;20477;-67
2022/11/22 09:22:12;;;;;;;25.60;17.80;;;7.60;99.90;;;;;;6202369;28;20469;-64
2022/11/22 09:25:15;;;;;;;24.50;17.77;;;7.70;99.90;;;;;;6202317;28;20480;-63
2022/11/22 09:28:18;;;;;;;23.23;17.60;;;7.80;99.90;;;;;;6201474;28;20476;-63
2022/11/22 09:31:23;;;;;;;26.53;17.90;;;7.80;99.90;;;;;;6201861;28;20472;-65
2022/11/22 09:34:26;;;;;;;21.40;17.07;;;7.80;99.90;;;;;;6206139;28;20483;-64
2022/11/22 09:37:32;;;;;;;22.43;15.70;;;7.80;99.90;;;;;;6196678;28;20488;-65
2022/11/22 09:40:38;;;;;;;23.53;16.63;;;7.90;99.90;;;;;;6208691;28;20898;-66
2022/11/22 09:43:50;;;;;;;19.93;15.20;;;8.10;99.90;;;;;;6204077;28;20476;-68
2022/11/22 09:46:58;;;;;;;21.63;15.93;;;8.20;99.90;;;;;;6182553;28;20485;-66
2022/11/22 09:50:13;;;;;;;23.43;17.37;;;8.40;99.90;;;;;;6186714;28;20957;-63
2022/11/22 09:53:24;;;;;;;23.60;16.90;;;8.40;99.90;;;;;;6181597;28;20482;-64
2022/11/22 09:56:29;;;;;;;20.50;15.97;;;8.50;99.90;;;;;;6180611;28;20494;-64
2022/11/22 09:59:37;;;;;;;27.30;16.67;;;8.50;99.90;;;;;;6192433;28;20474;-64
2022/11/22 10:02:45;;;;;;;23.23;16.10;;;8.40;99.90;;;;;;6193741;28;20477;-63
2022/11/22 10:06:08;;;;;;;21.40;16.87;;;8.50;99.90;;;;;;6202296;28;20469;-64
2022/11/22 10:09:26;;;;;;;22.60;16.27;;;8.60;99.90;;;;;;6193872;28;20433;-63
2022/11/22 10:12:37;;;;;;;26.60;18.00;;;8.60;99.90;;;;;;6151309;28;20483;-63
2022/11/22 10:15:49;;;;;;;21.60;17.77;;;8.60;99.90;;;;;;6174803;28;21069;-63
2022/11/22 10:18:57;;;;;;;24.70;17.77;;;8.60;99.90;;;;;;6176769;28;20848;-63
2022/11/22 10:22:00;;;;;;;22.70;18.50;;;8.60;99.90;;;;;;6175577;28;20604;-61
2022/11/22 10:25:15;;;;;;;28.47;19.70;;;8.70;99.90;;;;;;6199033;28;20473;-63
2022/11/22 10:28:23;;;;;;;25.43;17.70;;;8.70;99.90;;;;;;6199714;28;20468;-63
2022/11/22 10:31:32;;;;;;;23.47;17.33;;;8.70;99.90;;;;;;6200263;28;20487;-64
2022/11/22 10:34:48;;;;;;;24.53;15.93;;;8.70;99.90;;;;;;6203775;28;20481;-63
2022/11/22 10:38:02;;;;;;;22.17;16.20;;;8.70;99.90;;;;;;6198979;28;20481;-64
2022/11/22 10:41:16;;;;;;;20.27;14.60;;;8.80;99.90;;;;;;6197772;28;20483;-63
2022/11/22 10:44:30;;;;;;;22.43;16.60;;;8.80;99.90;;;;;;6198364;28;20469;-64
2022/11/22 10:47:56;;;;;;;23.03;16.57;;;8.80;99.90;;;;;;6185606;28;20469;-62
2022/11/22 10:51:09;;;;;;;24.10;16.57;;;8.90;99.90;;;;;;6185173;28;20477;-62
2022/11/22 10:54:16;;;;;;;19.60;14.07;;;8.90;99.90;;;;;;6179748;28;20503;-63
2022/11/22 10:57:29;;;;;;;20.10;16.37;;;8.90;99.90;;;;;;6177189;28;20446;-62
2022/11/22 11:00:36;;;;;;;23.23;16.17;;;9.00;99.90;;;;;;6175810;28;20481;-63
2022/11/22 11:03:43;;;;;;;19.83;16.00;;;9.10;99.90;;;;;;6175244;28;20488;-63
2022/11/22 11:06:50;;;;;;;26.33;19.30;;;9.10;99.90;;;;;;6175275;28;20818;-63
2022/11/22 11:10:17;;;;;;;23.50;17.43;;;9.20;99.90;;;;;;6175734;28;20765;-63
2022/11/22 11:16:42;;;;;;;25.27;18.37;;;9.20;99.90;;;;;;6181821;28;20482;-63
2022/11/22 11:19:49;;;;;;;28.10;17.23;;;9.40;99.90;;;;;;6176232;28;20817;-63
2022/11/22 11:22:52;;;;;;;21.70;16.60;;;9.50;99.90;;;;;;6185080;28;20477;-62
2022/11/22 11:26:23;;;;;;;21.23;15.37;;;9.70;99.90;;;;;;6203173;28;20558;-62
2022/11/22 11:29:34;;;;;;;17.07;15.13;;;9.80;99.90;;;;;;6184498;28;20517;-61
2022/11/22 11:32:52;;;;;;;15.50;13.87;;;9.80;99.90;;;;;;6180677;28;20873;-62
2022/11/22 11:36:01;;;;;;;15.70;12.83;;;9.80;99.90;;;;;;6178465;28;20512;-63
2022/11/22 11:39:04;;;;;;;15.20;12.53;;;9.60;99.90;;;;;;6178415;28;20439;-61
2022/11/22 11:42:26;;;;;;;13.90;11.37;;;9.60;99.90;;;;;;6174538;28;20449;-61
2022/11/22 11:45:31;;;;;;;16.67;11.90;;;9.50;99.90;;;;;;6177993;28;21195;-61
2022/11/22 11:48:39;;;;;;;15.50;11.60;;;9.50;99.90;;;;;;6177157;28;20746;-61
2022/11/22 11:51:44;;;;;;;13.53;11.77;;;9.60;99.90;;;;;;6171353;28;20474;-61
2022/11/22 11:54:50;;;;;;;13.70;11.83;;;9.60;99.90;;;;;;6150581;28;20479;-63
2022/11/22 11:57:53;;;;;;;14.10;11.60;;;9.60;99.90;;;;;;6156931;28;20482;-63
2022/11/22 12:00:58;;;;;;;13.30;11.53;;;9.60;99.90;;;;;;6155392;28;20478;-62
2022/11/22 12:04:05;;;;;;;13.70;11.73;;;9.60;99.90;;;;;;6163156;28;20787;-61
2022/11/22 12:07:18;;;;;;;13.40;10.77;;;9.60;99.90;;;;;;6169751;28;20474;-62
2022/11/22 12:10:35;;;;;;;15.17;12.30;;;9.50;99.90;;;;;;6165537;28;21045;-64
2022/11/22 12:13:42;;;;;;;11.13;9.93;;;9.50;99.90;;;;;;6168025;28;20494;-63
2022/11/22 12:17:15;;;;;;;11.47;9.93;;;9.40;99.90;;;;;;6172064;28;20565;-63
2022/11/22 12:20:25;;;;;;;13.37;10.77;;;9.40;99.90;;;;;;6161695;28;20487;-63
2022/11/22 12:23:35;;;;;;;11.90;10.70;;;9.30;99.90;;;;;;6174501;28;20480;-62
2022/11/22 12:26:38;;;;;;;12.27;9.50;;;9.40;99.90;;;;;;6157167;28;20977;-62
2022/11/22 12:29:43;;;;;;;17.27;11.40;;;9.40;99.90;;;;;;6153706;28;20482;-62
2022/11/22 12:32:57;;;;;;;14.07;11.60;;;9.40;99.90;;;;;;6153473;28;20486;-63
2022/11/22 12:36:03;;;;;;;23.23;14.50;;;9.40;99.90;;;;;;6177924;28;20788;-63
2022/11/22 12:39:12;;;;;;;17.33;14.57;;;9.30;99.90;;;;;;6179429;28;20438;-61
2022/11/22 12:42:20;;;;;;;20.53;15.57;;;8.90;99.90;;;;;;6156691;28;20908;-63
2022/11/22 12:45:30;;;;;;;16.13;14.00;;;8.70;99.90;;;;;;6173784;28;20553;-62
2022/11/22 12:48:40;;;;;;;23.50;17.20;;;8.80;99.90;;;;;;6177648;28;20485;-61
2022/11/22 12:51:53;;;;;;;18.90;15.10;;;8.70;99.90;;;;;;6172297;28;20575;-61
2022/11/22 12:55:04;;;;;;;17.73;12.90;;;8.60;99.90;;;;;;6153563;28;20467;-62
2022/11/22 12:58:19;;;;;;;14.20;11.00;;;8.50;99.90;;;;;;6153687;28;20475;-61
2022/11/22 13:01:27;;;;;;;15.40;10.87;;;8.30;99.90;;;;;;6153110;28;20471;-61
2022/11/22 13:04:41;;;;;;;7.00;6.30;;;8.30;99.90;;;;;;6153500;28;20554;-62
2022/11/22 13:07:56;;;;;;;8.50;5.77;;;8.10;99.90;;;;;;6165891;28;20478;-63
2022/11/22 13:11:06;;;;;;;7.00;6.30;;;7.90;99.90;;;;;;6178469;28;20561;-62
2022/11/22 13:14:14;;;;;;;7.77;6.27;;;8.00;99.90;;;;;;6176785;28;20486;-62
2022/11/22 13:17:26;;;;;;;7.63;6.70;;;8.10;99.90;;;;;;6176345;28;20477;-62
2022/11/22 13:20:37;;;;;;;7.60;6.00;;;8.20;99.90;;;;;;6176940;28;20767;-63
2022/11/22 13:24:08;;;;;;;7.80;6.50;;;8.20;99.90;;;;;;6194336;28;20477;-63
2022/11/22 13:27:18;;;;;;;11.37;8.40;;;8.30;99.90;;;;;;6201789;28;20461;-64
2022/11/22 13:30:23;;;;;;;9.73;6.60;;;8.40;99.90;;;;;;6202350;28;20764;-64
2022/11/22 13:33:27;;;;;;;7.30;6.10;;;8.40;99.90;;;;;;6203872;28;20472;-63
2022/11/22 13:36:40;;;;;;;6.90;5.33;;;8.40;99.90;;;;;;6200425;28;20480;-62
2022/11/22 13:39:46;;;;;;;6.23;5.63;;;8.40;99.90;;;;;;6171352;28;20486;-62
2022/11/22 13:43:23;;;;;;;5.97;5.17;;;8.40;99.90;;;;;;6152439;28;20479;-62
2022/11/22 13:46:56;;;;;;;6.53;5.47;;;8.40;99.90;;;;;;6151563;28;20474;-63
2022/11/22 13:49:59;;;;;;;7.03;5.10;;;8.40;99.90;;;;;;6147448;28;21006;-63
2022/11/22 13:53:22;;;;;;;6.93;5.40;;;8.40;99.90;;;;;;6167222;28;20974;-63
2022/11/22 13:56:48;;;;;;;5.50;5.00;;;8.30;99.90;;;;;;6175249;28;20501;-64
2022/11/22 14:00:21;;;;;;;4.83;4.40;;;8.30;99.90;;;;;;6175514;28;20482;-62
2022/11/22 14:03:36;;;;;;;5.07;4.03;;;8.20;99.90;;;;;;6174727;28;20465;-63
2022/11/22 14:06:46;;;;;;;4.53;3.60;;;8.10;99.90;;;;;;6175471;28;20773;-62
2022/11/22 14:09:58;;;;;;;3.30;3.00;;;8.10;99.90;;;;;;6168795;28;20471;-62
2022/11/22 14:13:28;;;;;;;3.37;3.07;;;8.10;99.90;;;;;;6149897;28;20467;-63
2022/11/22 14:16:47;;;;;;;5.33;4.07;;;8.10;99.90;;;;;;6162895;28;20768;-63
2022/11/22 14:20:00;;;;;;;5.07;4.40;;;8.00;99.90;;;;;;6143714;28;20801;-62
2022/11/22 14:23:15;;;;;;;5.07;4.23;;;8.00;99.90;;;;;;6151445;28;20482;-63
2022/11/22 14:26:28;;;;;;;6.37;4.97;;;8.00;99.90;;;;;;6166511;28;20474;-63
2022/11/22 14:29:55;;;;;;;7.50;4.67;;;7.90;99.90;;;;;;6155733;28;20479;-64
2022/11/22 14:33:02;;;;;;;5.23;4.77;;;7.90;99.90;;;;;;6174967;28;20478;-63
2022/11/22 14:36:16;;;;;;;7.97;5.80;;;7.90;99.90;;;;;;6174463;28;20965;-63
2022/11/22 14:39:59;;;;;;;5.53;4.70;;;8.00;99.90;;;;;;6153700;28;20447;-64
2022/11/22 14:43:20;;;;;;;4.87;4.37;;;8.00;99.90;;;;;;6169180;28;20486;-65
2022/11/22 14:46:25;;;;;;;10.67;6.10;;;7.90;99.90;;;;;;6150579;28;20967;-64
2022/11/22 14:49:49;;;;;;;5.50;4.13;;;7.90;99.90;;;;;;6150791;28;20843;-63
2022/11/22 14:52:55;;;;;;;5.03;4.53;;;7.90;99.90;;;;;;6150736;28;20479;-63
2022/11/22 14:56:05;;;;;;;4.97;4.40;;;7.90;99.90;;;;;;6151595;28;20494;-63
2022/11/22 14:59:30;;;;;;;5.53;5.03;;;7.90;99.90;;;;;;6157788;28;20478;-63
2022/11/22 15:03:07;;;;;;;8.70;4.50;;;7.90;99.90;;;;;;6158687;28;20872;-63
2022/11/22 15:06:26;;;;;;;5.70;4.50;;;7.90;99.90;;;;;;6140772;28;20482;-63
2022/11/22 15:10:10;;;;;;;5.47;4.97;;;7.90;99.90;;;;;;6179710;28;20470;-64
2022/11/22 15:13:52;;;;;;;6.63;5.30;;;7.70;99.90;;;;;;6182155;28;20564;-63
2022/11/22 15:16:59;;;;;;;7.43;6.50;;;7.80;99.90;;;;;;6154654;28;20479;-64
2022/11/22 15:20:32;;;;;;;8.67;5.90;;;7.80;99.90;;;;;;6154571;28;20534;-64
2022/11/22 15:23:56;;;;;;;6.13;5.50;;;7.90;99.90;;;;;;6183437;28;20724;-62
2022/11/22 15:27:24;;;;;;;10.30;6.50;;;7.90;99.90;;;;;;6202315;28;20536;-62
2022/11/22 15:30:48;;;;;;;7.40;6.50;;;7.90;99.90;;;;;;6202504;28;20978;-62
2022/11/22 15:34:20;;;;;;;7.90;6.87;;;7.90;99.90;;;;;;6201999;28;20573;-63
2022/11/22 15:37:51;;;;;;;7.40;6.37;;;7.90;99.90;;;;;;6202064;28;20465;-62
2022/11/22 15:41:17;;;;;;;8.90;6.23;;;7.80;99.90;;;;;;6201644;28;20566;-62
2022/11/22 15:44:40;;;;;;;8.63;7.07;;;7.80;99.90;;;;;;6198163;28;20552;-62
2022/11/22 15:48:06;;;;;;;5.47;5.07;;;7.90;99.90;;;;;;6177618;28;20574;-63
2022/11/22 15:51:34;;;;;;;8.37;7.57;;;7.90;99.90;;;;;;6177831;28;20561;-62
2022/11/22 15:54:58;;;;;;;6.60;6.00;;;7.90;99.90;;;;;;6149750;28;20576;-62
2022/11/22 15:58:21;;;;;;;5.33;4.83;;;7.90;99.90;;;;;;6153621;28;20962;-62
2022/11/22 16:01:24;;;;;;;7.50;5.63;;;7.90;99.90;;;;;;6153924;28;20493;-62
2022/11/22 16:04:30;;;;;;;5.27;4.77;;;7.90;99.90;;;;;;6153681;28;20609;-62
2022/11/22 16:07:37;;;;;;;7.20;5.40;;;7.90;99.90;;;;;;6152188;28;20549;-63
2022/11/22 16:10:43;;;;;;;5.90;5.40;;;7.90;99.90;;;;;;6152645;28;20577;-63
2022/11/22 16:13:47;;;;;;;5.90;5.30;;;7.90;99.90;;;;;;6153301;28;20494;-62
2022/11/22 16:16:51;;;;;;;5.60;5.10;;;7.90;99.90;;;;;;6154449;28;20470;-65
2022/11/22 16:20:27;;;;;;;6.33;5.70;;;7.90;99.90;;;;;;6153657;28;20629;-61
2022/11/22 16:23:33;;;;;;;7.70;6.27;;;7.90;99.90;;;;;;6175805;28;20481;-62
2022/11/22 16:26:37;;;;;;;6.43;5.83;;;7.90;99.90;;;;;;6201291;28;20477;-64